sensor_id;sensor_type;location;lat;lon;timestamp;P1;durP1;ratioP1;P2;durP2;ratioP2
51525;SDS011;37611;51.794;21.590;2023-04-30T00:01:32;31.40;;;21.20;;
51525;SDS011;37611;51.794;21.590;2023-04-30T00:05:34;35.90;;;22.10;;
51525;SDS011;37611;51.794;21.590;2023-04-30T00:09:36;36.60;;;23.60;;
51525;SDS011;37611;51.794;21.590;2023-04-30T00:13:37;38.30;;;27.10;;
51525;SDS011;37611;51.794;21.590;2023-04-30T00:17:39;35.20;;;22.40;;
51525;SDS011;37611;51.794;21.590;2023-04-30T00:21:41;29.00;;;20.60;;
51525;SDS011;37611;51.794;21.590;2023-04-30T00:25:43;29.80;;;19.60;;
51525;SDS011;37611;51.794;21.590;2023-04-30T00:29:45;29.00;;;19.50;;
51525;SDS011;37611;51.794;21.590;2023-04-30T00:33:49;27.90;;;18.10;;
51525;SDS011;37611;51.794;21.590;2023-04-30T00:37:52;28.00;;;17.00;;
51525;SDS011;37611;51.794;21.590;2023-04-30T00:41:53;27.30;;;17.00;;
51525;SDS011;37611;51.794;21.590;2023-04-30T00:45:55;27.00;;;16.40;;
51525;SDS011;37611;51.794;21.590;2023-04-30T00:49:59;29.30;;;16.70;;
51525;SDS011;37611;51.794;21.590;2023-04-30T00:54:01;27.50;;;18.30;;
51525;SDS011;37611;51.794;21.590;2023-04-30T00:58:03;27.70;;;17.20;;
51525;SDS011;37611;51.794;21.590;2023-04-30T01:02:06;27.50;;;17.60;;
51525;SDS011;37611;51.794;21.590;2023-04-30T01:06:08;30.70;;;19.30;;
51525;SDS011;37611;51.794;21.590;2023-04-30T01:10:10;28.40;;;19.90;;
51525;SDS011;37611;51.794;21.590;2023-04-30T01:14:24;28.70;;;19.20;;
51525;SDS011;37611;51.794;21.590;2023-04-30T01:19:01;29.10;;;19.40;;
51525;SDS011;37611;51.794;21.590;2023-04-30T01:27:31;28.80;;;17.80;;
51525;SDS011;37611;51.794;21.590;2023-04-30T01:31:47;32.50;;;21.70;;
51525;SDS011;37611;51.794;21.590;2023-04-30T01:44:40;36.40;;;25.40;;
51525;SDS011;37611;51.794;21.590;2023-04-30T01:53:01;23.10;;;17.50;;
51525;SDS011;37611;51.794;21.590;2023-04-30T01:57:09;25.00;;;17.70;;
51525;SDS011;37611;51.794;21.590;2023-04-30T02:01:26;27.80;;;18.60;;
51525;SDS011;37611;51.794;21.590;2023-04-30T02:05:29;25.40;;;16.90;;
51525;SDS011;37611;51.794;21.590;2023-04-30T02:09:31;27.30;;;17.40;;
51525;SDS011;37611;51.794;21.590;2023-04-30T02:13:33;30.20;;;20.80;;
51525;SDS011;37611;51.794;21.590;2023-04-30T02:17:35;34.50;;;20.70;;
51525;SDS011;37611;51.794;21.590;2023-04-30T02:21:36;25.70;;;18.50;;
51525;SDS011;37611;51.794;21.590;2023-04-30T02:25:38;29.90;;;18.20;;
51525;SDS011;37611;51.794;21.590;2023-04-30T02:29:40;30.00;;;19.00;;
51525;SDS011;37611;51.794;21.590;2023-04-30T02:33:42;23.10;;;18.90;;
51525;SDS011;37611;51.794;21.590;2023-04-30T02:37:43;28.30;;;19.50;;
51525;SDS011;37611;51.794;21.590;2023-04-30T02:41:45;31.90;;;20.70;;
51525;SDS011;37611;51.794;21.590;2023-04-30T02:45:47;25.70;;;19.40;;
51525;SDS011;37611;51.794;21.590;2023-04-30T02:49:49;29.30;;;19.80;;
51525;SDS011;37611;51.794;21.590;2023-04-30T02:53:51;26.40;;;19.00;;
51525;SDS011;37611;51.794;21.590;2023-04-30T02:57:53;30.80;;;19.20;;
51525;SDS011;37611;51.794;21.590;2023-04-30T03:01:54;28.70;;;19.00;;
51525;SDS011;37611;51.794;21.590;2023-04-30T03:05:56;33.40;;;20.90;;
51525;SDS011;37611;51.794;21.590;2023-04-30T03:09:59;36.50;;;22.60;;
51525;SDS011;37611;51.794;21.590;2023-04-30T03:14:02;35.70;;;25.30;;
51525;SDS011;37611;51.794;21.590;2023-04-30T03:18:04;39.60;;;26.30;;
51525;SDS011;37611;51.794;21.590;2023-04-30T03:22:07;43.90;;;31.00;;
51525;SDS011;37611;51.794;21.590;2023-04-30T03:26:08;40.50;;;30.10;;
51525;SDS011;37611;51.794;21.590;2023-04-30T03:30:10;49.10;;;31.60;;
51525;SDS011;37611;51.794;21.590;2023-04-30T03:34:12;42.00;;;30.60;;
51525;SDS011;37611;51.794;21.590;2023-04-30T03:38:14;31.80;;;23.70;;
51525;SDS011;37611;51.794;21.590;2023-04-30T03:42:16;35.90;;;22.80;;
51525;SDS011;37611;51.794;21.590;2023-04-30T03:46:17;25.50;;;20.40;;
51525;SDS011;37611;51.794;21.590;2023-04-30T03:50:19;27.80;;;19.80;;
51525;SDS011;37611;51.794;21.590;2023-04-30T03:54:21;27.80;;;19.80;;
51525;SDS011;37611;51.794;21.590;2023-04-30T03:58:23;24.40;;;18.40;;
51525;SDS011;37611;51.794;21.590;2023-04-30T04:02:25;22.30;;;17.60;;
51525;SDS011;37611;51.794;21.590;2023-04-30T04:06:28;24.90;;;19.10;;
51525;SDS011;37611;51.794;21.590;2023-04-30T04:10:29;25.90;;;17.30;;
51525;SDS011;37611;51.794;21.590;2023-04-30T04:14:31;21.40;;;17.70;;
51525;SDS011;37611;51.794;21.590;2023-04-30T04:18:33;20.60;;;17.00;;
51525;SDS011;37611;51.794;21.590;2023-04-30T04:22:35;27.80;;;19.80;;
51525;SDS011;37611;51.794;21.590;2023-04-30T04:26:37;21.10;;;18.00;;
51525;SDS011;37611;51.794;21.590;2023-04-30T04:30:39;21.70;;;18.10;;
51525;SDS011;37611;51.794;21.590;2023-04-30T04:34:41;24.50;;;18.70;;
51525;SDS011;37611;51.794;21.590;2023-04-30T04:38:44;23.50;;;19.10;;
51525;SDS011;37611;51.794;21.590;2023-04-30T04:42:48;21.20;;;19.00;;
51525;SDS011;37611;51.794;21.590;2023-04-30T04:46:51;22.20;;;19.10;;
51525;SDS011;37611;51.794;21.590;2023-04-30T04:50:54;21.40;;;19.20;;
51525;SDS011;37611;51.794;21.590;2023-04-30T04:54:56;26.10;;;19.70;;
51525;SDS011;37611;51.794;21.590;2023-04-30T04:58:57;22.40;;;20.00;;
51525;SDS011;37611;51.794;21.590;2023-04-30T05:02:59;22.40;;;20.10;;
51525;SDS011;37611;51.794;21.590;2023-04-30T05:07:01;21.60;;;18.80;;
51525;SDS011;37611;51.794;21.590;2023-04-30T05:11:04;24.40;;;18.80;;
51525;SDS011;37611;51.794;21.590;2023-04-30T05:15:06;22.30;;;20.00;;
51525;SDS011;37611;51.794;21.590;2023-04-30T05:19:08;22.80;;;20.50;;
51525;SDS011;37611;51.794;21.590;2023-04-30T05:23:10;22.30;;;19.80;;
51525;SDS011;37611;51.794;21.590;2023-04-30T05:27:12;21.10;;;18.20;;
51525;SDS011;37611;51.794;21.590;2023-04-30T05:31:17;21.80;;;18.40;;
51525;SDS011;37611;51.794;21.590;2023-04-30T05:35:19;20.60;;;18.50;;
51525;SDS011;37611;51.794;21.590;2023-04-30T05:39:21;19.80;;;17.70;;
51525;SDS011;37611;51.794;21.590;2023-04-30T05:43:23;20.20;;;18.20;;
51525;SDS011;37611;51.794;21.590;2023-04-30T05:47:24;21.60;;;19.20;;
51525;SDS011;37611;51.794;21.590;2023-04-30T05:51:26;22.00;;;19.30;;
51525;SDS011;37611;51.794;21.590;2023-04-30T05:55:29;20.20;;;18.10;;
51525;SDS011;37611;51.794;21.590;2023-04-30T05:59:31;17.50;;;15.80;;
51525;SDS011;37611;51.794;21.590;2023-04-30T06:03:33;16.70;;;14.50;;
51525;SDS011;37611;51.794;21.590;2023-04-30T06:07:35;15.30;;;13.70;;
51525;SDS011;37611;51.794;21.590;2023-04-30T06:11:37;16.40;;;14.50;;
51525;SDS011;37611;51.794;21.590;2023-04-30T06:15:39;16.50;;;14.90;;
51525;SDS011;37611;51.794;21.590;2023-04-30T06:19:43;16.80;;;15.10;;
51525;SDS011;37611;51.794;21.590;2023-04-30T06:23:45;15.80;;;13.80;;
51525;SDS011;37611;51.794;21.590;2023-04-30T06:27:46;15.20;;;13.70;;
51525;SDS011;37611;51.794;21.590;2023-04-30T06:31:49;17.20;;;12.60;;
51525;SDS011;37611;51.794;21.590;2023-04-30T06:35:51;15.20;;;13.60;;
51525;SDS011;37611;51.794;21.590;2023-04-30T06:39:55;16.30;;;14.60;;
51525;SDS011;37611;51.794;21.590;2023-04-30T06:43:57;14.70;;;13.20;;
51525;SDS011;37611;51.794;21.590;2023-04-30T06:47:59;15.70;;;14.00;;
51525;SDS011;37611;51.794;21.590;2023-04-30T06:52:01;16.00;;;14.00;;
51525;SDS011;37611;51.794;21.590;2023-04-30T06:56:03;13.10;;;11.70;;
51525;SDS011;37611;51.794;21.590;2023-04-30T07:00:06;11.70;;;10.30;;
51525;SDS011;37611;51.794;21.590;2023-04-30T07:04:09;10.90;;;9.30;;
51525;SDS011;37611;51.794;21.590;2023-04-30T07:08:12;11.50;;;9.00;;
51525;SDS011;37611;51.794;21.590;2023-04-30T07:12:15;9.10;;;8.10;;
51525;SDS011;37611;51.794;21.590;2023-04-30T07:16:17;10.10;;;8.60;;
51525;SDS011;37611;51.794;21.590;2023-04-30T07:20:19;9.10;;;7.80;;
51525;SDS011;37611;51.794;21.590;2023-04-30T07:24:20;9.10;;;7.60;;
51525;SDS011;37611;51.794;21.590;2023-04-30T07:28:22;9.20;;;7.50;;
51525;SDS011;37611;51.794;21.590;2023-04-30T07:32:24;9.30;;;7.60;;
51525;SDS011;37611;51.794;21.590;2023-04-30T07:36:27;8.90;;;7.50;;
51525;SDS011;37611;51.794;21.590;2023-04-30T07:40:29;9.50;;;7.30;;
51525;SDS011;37611;51.794;21.590;2023-04-30T07:44:31;8.60;;;6.20;;
51525;SDS011;37611;51.794;21.590;2023-04-30T07:48:33;8.00;;;7.00;;
51525;SDS011;37611;51.794;21.590;2023-04-30T07:52:34;9.30;;;6.80;;
51525;SDS011;37611;51.794;21.590;2023-04-30T07:56:36;7.30;;;6.50;;
51525;SDS011;37611;51.794;21.590;2023-04-30T08:00:38;8.70;;;6.40;;
51525;SDS011;37611;51.794;21.590;2023-04-30T08:04:40;7.60;;;5.60;;
51525;SDS011;37611;51.794;21.590;2023-04-30T08:08:42;6.70;;;5.50;;
51525;SDS011;37611;51.794;21.590;2023-04-30T08:12:43;7.50;;;5.70;;
51525;SDS011;37611;51.794;21.590;2023-04-30T08:16:45;8.70;;;5.70;;
51525;SDS011;37611;51.794;21.590;2023-04-30T08:20:47;7.90;;;5.90;;
51525;SDS011;37611;51.794;21.590;2023-04-30T08:24:49;6.90;;;5.60;;
51525;SDS011;37611;51.794;21.590;2023-04-30T08:28:51;6.20;;;5.10;;
51525;SDS011;37611;51.794;21.590;2023-04-30T08:32:53;8.40;;;5.10;;
51525;SDS011;37611;51.794;21.590;2023-04-30T08:36:54;6.50;;;5.60;;
51525;SDS011;37611;51.794;21.590;2023-04-30T08:45:26;6.20;;;4.80;;
51525;SDS011;37611;51.794;21.590;2023-04-30T08:49:28;7.80;;;4.90;;
51525;SDS011;37611;51.794;21.590;2023-04-30T08:53:35;6.20;;;5.30;;
51525;SDS011;37611;51.794;21.590;2023-04-30T08:57:40;7.40;;;5.20;;
51525;SDS011;37611;51.794;21.590;2023-04-30T09:01:42;6.10;;;5.10;;
51525;SDS011;37611;51.794;21.590;2023-04-30T09:05:44;12.70;;;8.70;;
51525;SDS011;37611;51.794;21.590;2023-04-30T09:09:46;9.10;;;7.20;;
51525;SDS011;37611;51.794;21.590;2023-04-30T09:13:51;11.30;;;7.40;;
51525;SDS011;37611;51.794;21.590;2023-04-30T09:18:10;9.50;;;7.70;;
51525;SDS011;37611;51.794;21.590;2023-04-30T09:22:19;10.10;;;7.20;;
51525;SDS011;37611;51.794;21.590;2023-04-30T09:26:25;9.70;;;7.30;;
51525;SDS011;37611;51.794;21.590;2023-04-30T09:30:33;9.10;;;6.80;;
51525;SDS011;37611;51.794;21.590;2023-04-30T09:34:35;7.00;;;5.80;;
51525;SDS011;37611;51.794;21.590;2023-04-30T09:38:37;11.40;;;6.70;;
51525;SDS011;37611;51.794;21.590;2023-04-30T09:42:39;5.60;;;4.60;;
51525;SDS011;37611;51.794;21.590;2023-04-30T09:46:41;12.40;;;7.00;;
51525;SDS011;37611;51.794;21.590;2023-04-30T09:50:44;10.00;;;5.90;;
51525;SDS011;37611;51.794;21.590;2023-04-30T09:54:47;7.20;;;5.00;;
51525;SDS011;37611;51.794;21.590;2023-04-30T09:58:50;4.80;;;4.00;;
51525;SDS011;37611;51.794;21.590;2023-04-30T10:02:53;12.20;;;4.90;;
51525;SDS011;37611;51.794;21.590;2023-04-30T10:06:56;7.20;;;4.30;;
51525;SDS011;37611;51.794;21.590;2023-04-30T10:11:01;5.20;;;4.30;;
51525;SDS011;37611;51.794;21.590;2023-04-30T10:15:05;6.50;;;3.60;;
51525;SDS011;37611;51.794;21.590;2023-04-30T10:19:29;7.80;;;3.70;;
51525;SDS011;37611;51.794;21.590;2023-04-30T10:23:32;5.70;;;3.70;;
51525;SDS011;37611;51.794;21.590;2023-04-30T10:27:35;6.50;;;3.10;;
51525;SDS011;37611;51.794;21.590;2023-04-30T10:31:37;5.00;;;3.30;;
51525;SDS011;37611;51.794;21.590;2023-04-30T10:35:52;7.10;;;3.40;;
51525;SDS011;37611;51.794;21.590;2023-04-30T10:39:59;13.40;;;8.10;;
51525;SDS011;37611;51.794;21.590;2023-04-30T10:44:02;4.70;;;3.30;;
51525;SDS011;37611;51.794;21.590;2023-04-30T10:48:05;7.20;;;2.80;;
51525;SDS011;37611;51.794;21.590;2023-04-30T10:52:08;9.70;;;5.80;;
51525;SDS011;37611;51.794;21.590;2023-04-30T10:56:11;7.90;;;2.30;;
51525;SDS011;37611;51.794;21.590;2023-04-30T11:00:16;6.80;;;2.60;;
51525;SDS011;37611;51.794;21.590;2023-04-30T11:04:19;4.80;;;2.50;;
51525;SDS011;37611;51.794;21.590;2023-04-30T11:08:34;4.00;;;2.30;;
51525;SDS011;37611;51.794;21.590;2023-04-30T11:12:37;4.10;;;2.20;;
51525;SDS011;37611;51.794;21.590;2023-04-30T11:16:41;5.90;;;2.20;;
51525;SDS011;37611;51.794;21.590;2023-04-30T11:20:49;4.20;;;2.20;;
51525;SDS011;37611;51.794;21.590;2023-04-30T11:28:59;5.10;;;2.20;;
51525;SDS011;37611;51.794;21.590;2023-04-30T11:33:01;6.00;;;2.90;;
51525;SDS011;37611;51.794;21.590;2023-04-30T11:37:03;6.90;;;2.30;;
51525;SDS011;37611;51.794;21.590;2023-04-30T11:41:06;4.70;;;2.40;;
51525;SDS011;37611;51.794;21.590;2023-04-30T11:45:14;3.70;;;1.90;;
51525;SDS011;37611;51.794;21.590;2023-04-30T11:49:19;5.50;;;2.50;;
51525;SDS011;37611;51.794;21.590;2023-04-30T11:53:26;6.50;;;2.90;;
51525;SDS011;37611;51.794;21.590;2023-04-30T12:01:41;5.90;;;2.20;;
51525;SDS011;37611;51.794;21.590;2023-04-30T12:05:44;8.60;;;2.40;;
51525;SDS011;37611;51.794;21.590;2023-04-30T12:09:51;4.20;;;2.20;;
51525;SDS011;37611;51.794;21.590;2023-04-30T12:14:00;4.40;;;2.50;;
51525;SDS011;37611;51.794;21.590;2023-04-30T12:18:10;4.00;;;2.40;;
51525;SDS011;37611;51.794;21.590;2023-04-30T12:22:14;9.80;;;2.50;;
51525;SDS011;37611;51.794;21.590;2023-04-30T12:26:16;4.30;;;2.60;;
51525;SDS011;37611;51.794;21.590;2023-04-30T12:30:22;4.70;;;2.40;;
51525;SDS011;37611;51.794;21.590;2023-04-30T12:34:27;3.70;;;2.00;;
51525;SDS011;37611;51.794;21.590;2023-04-30T12:38:30;5.60;;;2.10;;
51525;SDS011;37611;51.794;21.590;2023-04-30T12:42:32;5.60;;;2.30;;
51525;SDS011;37611;51.794;21.590;2023-04-30T12:46:37;4.00;;;2.10;;
51525;SDS011;37611;51.794;21.590;2023-04-30T12:50:39;3.80;;;2.00;;
51525;SDS011;37611;51.794;21.590;2023-04-30T12:54:41;5.90;;;1.90;;
51525;SDS011;37611;51.794;21.590;2023-04-30T12:58:45;6.90;;;1.80;;
51525;SDS011;37611;51.794;21.590;2023-04-30T13:02:48;3.20;;;1.60;;
51525;SDS011;37611;51.794;21.590;2023-04-30T13:06:50;5.40;;;2.20;;
51525;SDS011;37611;51.794;21.590;2023-04-30T13:10:52;3.40;;;1.80;;
51525;SDS011;37611;51.794;21.590;2023-04-30T13:14:54;6.40;;;2.00;;
51525;SDS011;37611;51.794;21.590;2023-04-30T13:18:56;4.70;;;1.80;;
51525;SDS011;37611;51.794;21.590;2023-04-30T13:22:57;5.20;;;2.00;;
51525;SDS011;37611;51.794;21.590;2023-04-30T13:26:59;3.60;;;1.70;;
51525;SDS011;37611;51.794;21.590;2023-04-30T13:31:01;6.00;;;1.90;;
51525;SDS011;37611;51.794;21.590;2023-04-30T13:35:03;4.70;;;1.80;;
51525;SDS011;37611;51.794;21.590;2023-04-30T13:39:05;4.90;;;1.50;;
51525;SDS011;37611;51.794;21.590;2023-04-30T13:43:07;4.60;;;1.90;;
51525;SDS011;37611;51.794;21.590;2023-04-30T13:47:08;7.00;;;1.90;;
51525;SDS011;37611;51.794;21.590;2023-04-30T13:51:11;4.50;;;1.70;;
51525;SDS011;37611;51.794;21.590;2023-04-30T13:55:13;7.00;;;2.60;;
51525;SDS011;37611;51.794;21.590;2023-04-30T13:59:14;3.70;;;2.00;;
51525;SDS011;37611;51.794;21.590;2023-04-30T14:03:19;4.30;;;1.90;;
51525;SDS011;37611;51.794;21.590;2023-04-30T14:07:21;6.20;;;2.40;;
51525;SDS011;37611;51.794;21.590;2023-04-30T14:11:24;7.20;;;2.70;;
51525;SDS011;37611;51.794;21.590;2023-04-30T14:15:28;3.40;;;1.90;;
51525;SDS011;37611;51.794;21.590;2023-04-30T14:19:32;5.40;;;2.00;;
51525;SDS011;37611;51.794;21.590;2023-04-30T14:23:34;4.50;;;2.00;;
51525;SDS011;37611;51.794;21.590;2023-04-30T14:27:36;6.40;;;2.10;;
51525;SDS011;37611;51.794;21.590;2023-04-30T14:31:37;3.00;;;1.80;;
51525;SDS011;37611;51.794;21.590;2023-04-30T14:35:39;6.10;;;2.20;;
51525;SDS011;37611;51.794;21.590;2023-04-30T14:39:41;3.10;;;2.00;;
51525;SDS011;37611;51.794;21.590;2023-04-30T14:43:44;4.90;;;2.00;;
51525;SDS011;37611;51.794;21.590;2023-04-30T14:47:45;3.60;;;1.80;;
51525;SDS011;37611;51.794;21.590;2023-04-30T14:51:47;6.70;;;2.00;;
51525;SDS011;37611;51.794;21.590;2023-04-30T14:55:49;3.20;;;1.80;;
51525;SDS011;37611;51.794;21.590;2023-04-30T14:59:51;3.50;;;1.70;;
51525;SDS011;37611;51.794;21.590;2023-04-30T15:03:55;6.50;;;3.00;;
51525;SDS011;37611;51.794;21.590;2023-04-30T15:07:57;3.70;;;1.90;;
51525;SDS011;37611;51.794;21.590;2023-04-30T15:11:58;7.30;;;1.80;;
51525;SDS011;37611;51.794;21.590;2023-04-30T15:16:00;4.00;;;2.10;;
51525;SDS011;37611;51.794;21.590;2023-04-30T15:20:05;6.50;;;2.10;;
51525;SDS011;37611;51.794;21.590;2023-04-30T15:24:07;4.10;;;1.60;;
51525;SDS011;37611;51.794;21.590;2023-04-30T15:28:09;4.70;;;1.70;;
51525;SDS011;37611;51.794;21.590;2023-04-30T15:32:11;4.90;;;2.10;;
51525;SDS011;37611;51.794;21.590;2023-04-30T15:36:14;2.90;;;1.50;;
51525;SDS011;37611;51.794;21.590;2023-04-30T15:40:15;2.30;;;1.50;;
51525;SDS011;37611;51.794;21.590;2023-04-30T15:44:17;5.70;;;2.00;;
51525;SDS011;37611;51.794;21.590;2023-04-30T15:48:19;4.50;;;2.00;;
51525;SDS011;37611;51.794;21.590;2023-04-30T15:52:21;4.70;;;3.00;;
51525;SDS011;37611;51.794;21.590;2023-04-30T15:56:22;4.80;;;2.10;;
51525;SDS011;37611;51.794;21.590;2023-04-30T16:00:26;6.50;;;3.80;;
51525;SDS011;37611;51.794;21.590;2023-04-30T16:04:29;4.70;;;1.90;;
51525;SDS011;37611;51.794;21.590;2023-04-30T16:08:31;8.10;;;2.60;;
51525;SDS011;37611;51.794;21.590;2023-04-30T16:12:35;12.60;;;10.30;;
51525;SDS011;37611;51.794;21.590;2023-04-30T16:16:37;10.10;;;9.10;;
51525;SDS011;37611;51.794;21.590;2023-04-30T16:20:40;9.10;;;8.10;;
51525;SDS011;37611;51.794;21.590;2023-04-30T16:24:42;3.80;;;2.40;;
51525;SDS011;37611;51.794;21.590;2023-04-30T16:28:44;4.80;;;2.50;;
51525;SDS011;37611;51.794;21.590;2023-04-30T16:32:47;4.20;;;2.40;;
51525;SDS011;37611;51.794;21.590;2023-04-30T16:36:49;3.20;;;1.90;;
51525;SDS011;37611;51.794;21.590;2023-04-30T16:40:50;3.40;;;1.90;;
51525;SDS011;37611;51.794;21.590;2023-04-30T16:44:52;16.80;;;6.60;;
51525;SDS011;37611;51.794;21.590;2023-04-30T16:48:55;73.30;;;66.00;;
51525;SDS011;37611;51.794;21.590;2023-04-30T16:52:56;28.20;;;25.90;;
51525;SDS011;37611;51.794;21.590;2023-04-30T16:56:58;12.00;;;8.20;;
51525;SDS011;37611;51.794;21.590;2023-04-30T17:01:00;8.80;;;8.00;;
51525;SDS011;37611;51.794;21.590;2023-04-30T17:05:02;46.00;;;36.80;;
51525;SDS011;37611;51.794;21.590;2023-04-30T17:09:04;177.50;;;138.60;;
51525;SDS011;37611;51.794;21.590;2023-04-30T17:13:07;123.40;;;88.60;;
51525;SDS011;37611;51.794;21.590;2023-04-30T17:17:09;113.20;;;79.60;;
51525;SDS011;37611;51.794;21.590;2023-04-30T17:21:11;38.30;;;26.60;;
51525;SDS011;37611;51.794;21.590;2023-04-30T17:25:13;11.50;;;8.80;;
51525;SDS011;37611;51.794;21.590;2023-04-30T17:29:15;33.60;;;29.30;;
51525;SDS011;37611;51.794;21.590;2023-04-30T17:33:17;31.30;;;25.90;;
51525;SDS011;37611;51.794;21.590;2023-04-30T17:37:18;66.60;;;50.80;;
51525;SDS011;37611;51.794;21.590;2023-04-30T17:41:20;72.80;;;53.00;;
51525;SDS011;37611;51.794;21.590;2023-04-30T17:45:22;90.00;;;60.90;;
51525;SDS011;37611;51.794;21.590;2023-04-30T17:49:23;88.60;;;56.00;;
51525;SDS011;37611;51.794;21.590;2023-04-30T17:53:26;122.00;;;78.20;;
51525;SDS011;37611;51.794;21.590;2023-04-30T17:57:27;67.50;;;41.20;;
51525;SDS011;37611;51.794;21.590;2023-04-30T18:01:30;23.00;;;13.40;;
51525;SDS011;37611;51.794;21.590;2023-04-30T18:05:32;11.30;;;8.00;;
51525;SDS011;37611;51.794;21.590;2023-04-30T18:09:34;14.70;;;6.70;;
51525;SDS011;37611;51.794;21.590;2023-04-30T18:13:36;11.80;;;8.40;;
51525;SDS011;37611;51.794;21.590;2023-04-30T18:17:38;12.40;;;7.50;;
51525;SDS011;37611;51.794;21.590;2023-04-30T18:21:40;12.30;;;6.80;;
51525;SDS011;37611;51.794;21.590;2023-04-30T18:25:42;11.90;;;7.70;;
51525;SDS011;37611;51.794;21.590;2023-04-30T18:29:44;21.60;;;13.30;;
51525;SDS011;37611;51.794;21.590;2023-04-30T18:33:46;18.00;;;12.20;;
51525;SDS011;37611;51.794;21.590;2023-04-30T18:37:48;20.20;;;13.40;;
51525;SDS011;37611;51.794;21.590;2023-04-30T18:41:50;17.40;;;12.90;;
51525;SDS011;37611;51.794;21.590;2023-04-30T18:45:52;18.00;;;13.50;;
51525;SDS011;37611;51.794;21.590;2023-04-30T18:49:54;21.50;;;15.50;;
51525;SDS011;37611;51.794;21.590;2023-04-30T18:53:56;19.40;;;12.70;;
51525;SDS011;37611;51.794;21.590;2023-04-30T18:57:58;19.60;;;14.40;;
51525;SDS011;37611;51.794;21.590;2023-04-30T19:02:00;23.00;;;17.00;;
51525;SDS011;37611;51.794;21.590;2023-04-30T19:06:02;27.80;;;20.80;;
51525;SDS011;37611;51.794;21.590;2023-04-30T19:10:04;17.90;;;14.60;;
51525;SDS011;37611;51.794;21.590;2023-04-30T19:14:06;13.30;;;10.10;;
51525;SDS011;37611;51.794;21.590;2023-04-30T19:18:11;13.00;;;8.70;;
51525;SDS011;37611;51.794;21.590;2023-04-30T19:22:13;10.50;;;5.80;;
51525;SDS011;37611;51.794;21.590;2023-04-30T19:26:15;6.90;;;5.20;;
51525;SDS011;37611;51.794;21.590;2023-04-30T19:30:17;6.90;;;5.00;;
51525;SDS011;37611;51.794;21.590;2023-04-30T19:34:19;7.20;;;5.30;;
51525;SDS011;37611;51.794;21.590;2023-04-30T19:38:20;8.50;;;4.80;;
51525;SDS011;37611;51.794;21.590;2023-04-30T19:42:22;7.30;;;5.10;;
51525;SDS011;37611;51.794;21.590;2023-04-30T19:46:24;29.30;;;16.30;;
51525;SDS011;37611;51.794;21.590;2023-04-30T19:50:27;52.60;;;32.10;;
51525;SDS011;37611;51.794;21.590;2023-04-30T19:54:28;51.70;;;31.00;;
51525;SDS011;37611;51.794;21.590;2023-04-30T19:58:30;52.80;;;34.10;;
51525;SDS011;37611;51.794;21.590;2023-04-30T20:02:32;42.20;;;24.20;;
51525;SDS011;37611;51.794;21.590;2023-04-30T20:06:34;26.30;;;17.30;;
51525;SDS011;37611;51.794;21.590;2023-04-30T20:10:36;43.40;;;22.30;;
51525;SDS011;37611;51.794;21.590;2023-04-30T20:14:38;35.80;;;18.40;;
51525;SDS011;37611;51.794;21.590;2023-04-30T20:18:40;36.70;;;19.10;;
51525;SDS011;37611;51.794;21.590;2023-04-30T20:22:42;56.00;;;29.10;;
51525;SDS011;37611;51.794;21.590;2023-04-30T20:26:44;40.70;;;21.60;;
51525;SDS011;37611;51.794;21.590;2023-04-30T20:30:46;26.90;;;15.00;;
51525;SDS011;37611;51.794;21.590;2023-04-30T20:34:49;23.90;;;15.00;;
51525;SDS011;37611;51.794;21.590;2023-04-30T20:38:52;26.70;;;16.80;;
51525;SDS011;37611;51.794;21.590;2023-04-30T20:42:56;34.40;;;21.40;;
51525;SDS011;37611;51.794;21.590;2023-04-30T20:46:57;34.80;;;21.70;;
51525;SDS011;37611;51.794;21.590;2023-04-30T20:50:59;34.10;;;21.70;;
51525;SDS011;37611;51.794;21.590;2023-04-30T20:55:01;45.10;;;23.30;;
51525;SDS011;37611;51.794;21.590;2023-04-30T20:59:03;86.20;;;36.10;;
51525;SDS011;37611;51.794;21.590;2023-04-30T21:03:06;259.70;;;95.70;;
51525;SDS011;37611;51.794;21.590;2023-04-30T21:07:08;132.60;;;53.50;;
51525;SDS011;37611;51.794;21.590;2023-04-30T21:11:10;187.60;;;73.80;;
51525;SDS011;37611;51.794;21.590;2023-04-30T21:15:14;127.50;;;52.10;;
51525;SDS011;37611;51.794;21.590;2023-04-30T21:19:16;87.90;;;36.70;;
51525;SDS011;37611;51.794;21.590;2023-04-30T21:23:18;49.60;;;25.40;;
51525;SDS011;37611;51.794;21.590;2023-04-30T21:27:20;54.80;;;25.40;;
51525;SDS011;37611;51.794;21.590;2023-04-30T21:31:22;51.50;;;24.30;;
51525;SDS011;37611;51.794;21.590;2023-04-30T21:35:26;50.30;;;22.10;;
51525;SDS011;37611;51.794;21.590;2023-04-30T21:39:30;44.80;;;21.70;;
51525;SDS011;37611;51.794;21.590;2023-04-30T21:43:34;36.70;;;17.30;;
51525;SDS011;37611;51.794;21.590;2023-04-30T21:47:35;21.00;;;11.30;;
51525;SDS011;37611;51.794;21.590;2023-04-30T21:51:38;19.60;;;10.30;;
51525;SDS011;37611;51.794;21.590;2023-04-30T21:55:40;14.80;;;9.30;;
51525;SDS011;37611;51.794;21.590;2023-04-30T21:59:42;18.10;;;10.90;;
51525;SDS011;37611;51.794;21.590;2023-04-30T22:03:45;21.70;;;12.20;;
51525;SDS011;37611;51.794;21.590;2023-04-30T22:07:47;25.70;;;14.70;;
51525;SDS011;37611;51.794;21.590;2023-04-30T22:11:49;92.50;;;44.00;;
51525;SDS011;37611;51.794;21.590;2023-04-30T22:15:52;93.70;;;42.20;;
51525;SDS011;37611;51.794;21.590;2023-04-30T22:19:54;90.00;;;43.30;;
51525;SDS011;37611;51.794;21.590;2023-04-30T22:23:57;148.00;;;67.40;;
51525;SDS011;37611;51.794;21.590;2023-04-30T22:28:01;149.90;;;68.60;;
51525;SDS011;37611;51.794;21.590;2023-04-30T22:32:03;158.80;;;75.20;;
51525;SDS011;37611;51.794;21.590;2023-04-30T22:36:06;79.30;;;37.50;;
51525;SDS011;37611;51.794;21.590;2023-04-30T22:40:09;94.50;;;52.50;;
51525;SDS011;37611;51.794;21.590;2023-04-30T22:44:15;60.40;;;35.10;;
51525;SDS011;37611;51.794;21.590;2023-04-30T22:48:17;72.40;;;38.30;;
51525;SDS011;37611;51.794;21.590;2023-04-30T22:52:19;54.90;;;30.30;;
51525;SDS011;37611;51.794;21.590;2023-04-30T22:56:21;56.40;;;30.30;;
51525;SDS011;37611;51.794;21.590;2023-04-30T23:00:23;55.20;;;30.40;;
51525;SDS011;37611;51.794;21.590;2023-04-30T23:04:26;67.10;;;33.40;;
51525;SDS011;37611;51.794;21.590;2023-04-30T23:08:28;77.20;;;33.10;;
51525;SDS011;37611;51.794;21.590;2023-04-30T23:12:31;73.10;;;34.80;;
51525;SDS011;37611;51.794;21.590;2023-04-30T23:16:35;69.20;;;34.30;;
51525;SDS011;37611;51.794;21.590;2023-04-30T23:20:40;60.10;;;31.00;;
51525;SDS011;37611;51.794;21.590;2023-04-30T23:24:42;174.10;;;76.90;;
51525;SDS011;37611;51.794;21.590;2023-04-30T23:28:44;65.50;;;34.20;;
51525;SDS011;37611;51.794;21.590;2023-04-30T23:32:46;68.20;;;33.50;;
51525;SDS011;37611;51.794;21.590;2023-04-30T23:36:48;64.00;;;31.20;;
51525;SDS011;37611;51.794;21.590;2023-04-30T23:40:49;66.10;;;33.40;;
51525;SDS011;37611;51.794;21.590;2023-04-30T23:44:51;66.00;;;31.60;;
51525;SDS011;37611;51.794;21.590;2023-04-30T23:48:53;79.90;;;39.30;;
51525;SDS011;37611;51.794;21.590;2023-04-30T23:52:56;43.80;;;28.00;;
51525;SDS011;37611;51.794;21.590;2023-04-30T23:56:58;44.00;;;25.40;;
